CST,Max TemperatureF,Mean TemperatureF,Min TemperatureF,Max Dew PointF,MeanDew PointF,Min DewpointF,Max Humidity, Mean Humidity, Min Humidity, Max Sea Level PressureIn, Mean Sea Level PressureIn, Min Sea Level PressureIn, Max VisibilityMiles, Mean VisibilityMiles, Min VisibilityMiles, Max Wind SpeedMPH, Mean Wind SpeedMPH, Max Gust SpeedMPH,PrecipitationIn, CloudCover, Events, WindDirDegrees
2012-11-1,79,58,37,37,33,30,79,42,9,30.04,29.95,29.84,10,10,6,14,6,,0.00,0,Snow,197
2012-11-2,72,58,42,36,34,26,76,41,14,30.08,29.85,29.74,10,10,7,25,14,32,0.00,0,,336
2012-11-3,60,46,32,36,33,29,92,65,26,30.25,30.19,30.09,10,9,5,14,10,,0.00,0,,27
2012-11-4,70,54,37,36,32,29,76,49,19,30.20,30.12,30.01,10,10,10,18,9,24,0.00,0,,225
2012-11-5,60,50,39,35,32,29,70,49,20,30.20,30.13,30.09,10,10,10,22,12,30,0.00,2,,346
2012-11-6,68,54,39,39,32,28,73,48,15,30.18,30.13,30.04,10,10,9,21,9,30,0.00,0,,316
2012-11-7,73,54,36,33,31,27,78,43,15,30.17,30.04,29.90,10,10,10,18,8,26,0.00,0,,158
2012-11-8,66,52,37,38,34,30,76,52,22,29.88,29.82,29.77,10,10,7,16,10,,0.00,0,,91
2012-11-9,84,60,37,37,33,28,82,42,7,29.77,29.67,29.56,10,10,6,28,9,37,0.00,0,,193
2012-11-10,82,62,42,51,40,16,76,45,12,29.78,29.56,29.42,10,8,1,39,19,51,0.08,4,Rain-Thunderstorm,216
2012-11-11,43,33,23,34,16,10,77,55,26,30.34,30.03,29.74,10,10,10,26,15,37,0.00,3,,337
2012-11-12,51,36,21,22,12,5,68,40,8,30.47,30.41,30.34,10,10,9,10,7,,0.00,0,,244
2012-11-13,57,42,28,21,16,11,54,37,9,30.39,30.28,30.16,10,10,10,26,13,33,0.00,0,,183
2012-11-14,60,42,23,22,18,14,78,45,10,30.33,30.24,30.13,10,10,9,14,7,,0.00,0,,287
2012-11-15,60,44,28,28,24,21,75,50,16,30.41,30.25,30.10,10,10,10,18,10,25,0.00,0,,36
2012-11-16,59,42,24,37,30,21,85,62,29,30.44,30.34,30.22,10,10,7,20,7,25,0.00,0,,179
2012-11-17,68,54,41,41,35,28,68,52,24,30.22,30.13,30.05,10,10,10,28,18,41,0.00,0,,180
2012-11-18,66,54,42,39,34,26,76,50,25,30.06,30.00,29.92,10,10,10,25,16,31,0.00,0,,172
2012-11-19,73,54,34,39,33,29,89,53,12,30.20,30.11,30.00,10,10,8,15,8,22,0.00,0,,342
2012-11-20,71,52,33,37,32,28,76,49,13,30.27,30.20,30.15,10,10,9,15,5,,0.00,0,,185
2012-11-21,73,56,39,43,36,28,86,48,11,30.13,30.00,29.81,10,10,9,30,14,40,0.00,0,,189
2012-11-22,71,53,35,43,32,23,64,42,10,30.38,29.98,29.75,10,10,10,31,17,40,0.00,0,,334
2012-11-23,48,36,25,22,17,14,69,48,15,30.62,30.50,30.38,10,10,8,15,9,,0.00,0,,342
2012-11-24,64,47,30,21,18,14,61,34,13,30.36,30.05,29.86,10,10,10,23,14,29,0.00,0,,204
2012-11-25,57,42,28,30,24,18,85,53,22,29.96,29.90,29.84,10,10,10,17,9,23,0.00,0,,35
2012-11-26,43,31,19,25,21,17,92,73,26,30.51,30.28,29.97,10,8,4,24,14,31,0.00,1,,20
2012-11-27,54,35,16,25,20,12,92,62,23,30.47,30.32,30.18,10,8,4,23,8,30,0.00,0,,195
2012-11-28,57,38,18,26,22,14,85,58,30,30.34,30.23,30.06,10,10,7,14,6,,0.00,0,,175
2012-11-29,64,42,19,26,21,15,88,50,15,30.05,30.01,29.94,10,9,6,9,4,,0.00,0,,236
2012-11-30,66,47,28,43,29,17,93,52,15,30.09,29.98,29.86,10,8,4,14,6,,0.00,0,,149